Time;durP1;ratioP1;P1;durP2;ratioP2;P2;SDS_P1;SDS_P2;PMS_P1;PMS_P2;Temp;Humidity;BMP_temperature;BMP_pressure;BME280_temperature;BME280_humidity;BME280_pressure;Samples;Min_cycle;Max_cycle;Signal;HPM_P1;HPM_P2
2023/05/12 00:00:03;;;;;;;5.07;4.57;;;16.80;90.00;;;;;;5001861;28;20464;-69
2023/05/12 00:02:38;;;;;;;4.70;4.30;;;16.70;89.90;;;;;;5004222;28;20472;-68
2023/05/12 00:05:08;;;;;;;6.10;5.20;;;16.70;89.90;;;;;;5005050;28;20448;-69
2023/05/12 00:07:36;;;;;;;5.67;4.90;;;16.70;89.90;;;;;;5002097;28;20442;-70
2023/05/12 00:10:05;;;;;;;5.23;4.70;;;16.70;89.90;;;;;;5002940;28;20465;-69
2023/05/12 00:12:35;;;;;;;5.43;4.57;;;16.70;89.90;;;;;;5009639;28;20854;-69
2023/05/12 00:15:03;;;;;;;6.40;5.70;;;16.70;89.90;;;;;;4988753;28;21042;-68
2023/05/12 00:17:32;;;;;;;5.43;4.93;;;16.70;89.90;;;;;;4996197;28;20881;-69
2023/05/12 00:20:01;;;;;;;5.77;5.17;;;16.70;89.90;;;;;;4992235;28;20819;-69
2023/05/12 00:22:30;;;;;;;5.97;5.37;;;16.70;89.90;;;;;;4995184;28;20445;-68
2023/05/12 00:24:58;;;;;;;5.20;4.70;;;16.70;89.90;;;;;;5019404;28;20648;-68
2023/05/12 00:27:26;;;;;;;5.87;5.27;;;16.70;89.90;;;;;;5012001;28;20445;-69
2023/05/12 00:29:57;;;;;;;6.50;5.40;;;16.70;89.90;;;;;;5006871;28;20915;-69
2023/05/12 00:32:26;;;;;;;7.87;5.37;;;16.70;89.90;;;;;;4990906;28;20527;-69
2023/05/12 00:34:55;;;;;;;5.80;5.13;;;16.70;89.90;;;;;;4999177;28;21037;-69
2023/05/12 00:37:24;;;;;;;6.13;5.53;;;16.70;89.90;;;;;;5006401;28;20527;-70
2023/05/12 00:39:52;;;;;;;6.43;5.83;;;16.70;89.90;;;;;;5022953;28;20474;-69
2023/05/12 00:42:21;;;;;;;6.50;5.20;;;16.70;89.90;;;;;;5008017;28;20440;-69
2023/05/12 00:44:49;;;;;;;6.03;5.30;;;16.70;90.00;;;;;;5005868;28;20445;-69
2023/05/12 00:47:20;;;;;;;5.70;5.10;;;16.70;89.90;;;;;;5008656;28;20451;-69
2023/05/12 00:49:48;;;;;;;5.70;5.10;;;16.70;89.90;;;;;;5006651;28;21170;-69
2023/05/12 00:52:17;;;;;;;6.37;5.77;;;16.70;89.90;;;;;;5007158;28;20564;-69
2023/05/12 00:54:46;;;;;;;6.63;5.63;;;16.70;89.90;;;;;;5013542;28;20584;-68
2023/05/12 00:57:15;;;;;;;5.07;4.30;;;16.70;89.90;;;;;;5009076;28;20512;-70
2023/05/12 00:59:43;;;;;;;4.80;4.30;;;16.70;89.90;;;;;;5005916;28;20846;-69
2023/05/12 01:02:12;;;;;;;4.67;4.27;;;16.70;89.90;;;;;;5006995;28;20473;-70
2023/05/12 01:04:42;;;;;;;5.90;5.40;;;16.70;89.90;;;;;;5006365;28;20445;-67
2023/05/12 01:07:15;;;;;;;5.07;4.53;;;16.60;89.80;;;;;;4986345;28;20461;-69
2023/05/12 01:09:45;;;;;;;5.00;4.53;;;16.70;89.90;;;;;;5000743;28;20834;-68
2023/05/12 01:12:13;;;;;;;6.07;5.00;;;16.70;89.90;;;;;;5007190;28;20480;-69
2023/05/12 01:14:42;;;;;;;4.43;4.03;;;16.70;89.90;;;;;;5002773;28;20449;-69
2023/05/12 01:17:13;;;;;;;4.90;4.50;;;16.70;89.90;;;;;;5002442;28;20514;-68
2023/05/12 01:19:48;;;;;;;5.00;4.50;;;16.60;89.80;;;;;;5012315;28;20537;-68
2023/05/12 01:22:17;;;;;;;5.50;4.97;;;16.70;89.90;;;;;;5006254;28;20437;-68
2023/05/12 01:24:50;;;;;;;4.20;3.80;;;16.70;89.90;;;;;;5006357;28;20457;-69
2023/05/12 01:27:22;;;;;;;5.23;4.33;;;16.60;89.80;;;;;;5002087;28;20537;-67
2023/05/12 01:29:52;;;;;;;5.07;4.57;;;16.60;89.80;;;;;;4994256;28;20958;-69
2023/05/12 01:32:22;;;;;;;5.77;5.27;;;16.70;90.00;;;;;;4997865;28;20655;-70
2023/05/12 01:34:50;;;;;;;5.53;5.03;;;16.70;89.90;;;;;;5006316;28;20422;-69
2023/05/12 01:37:20;;;;;;;4.90;4.40;;;16.70;89.90;;;;;;5013200;28;20791;-69
2023/05/12 01:39:48;;;;;;;6.17;5.57;;;16.60;89.80;;;;;;5020821;28;20741;-67
2023/05/12 01:42:21;;;;;;;4.30;3.77;;;16.60;89.80;;;;;;5000978;28;20971;-69
2023/05/12 01:44:50;;;;;;;5.63;5.07;;;16.60;89.80;;;;;;5007542;28;20480;-69
2023/05/12 01:47:20;;;;;;;5.33;4.83;;;16.60;89.80;;;;;;5003490;28;20454;-70
2023/05/12 01:49:58;;;;;;;6.40;5.67;;;16.60;89.80;;;;;;5005487;28;20907;-67
2023/05/12 01:52:26;;;;;;;5.30;4.80;;;16.60;89.80;;;;;;5004940;28;20465;-69
2023/05/12 01:54:55;;;;;;;5.13;4.40;;;16.60;89.80;;;;;;5001908;28;20954;-69
2023/05/12 01:57:26;;;;;;;5.10;4.60;;;16.60;89.80;;;;;;5005483;28;20500;-69
2023/05/12 01:59:58;;;;;;;6.43;5.57;;;16.60;89.80;;;;;;5005533;28;20468;-68
2023/05/12 02:02:28;;;;;;;5.87;5.27;;;16.60;89.80;;;;;;5002975;28;20537;-69
2023/05/12 02:04:57;;;;;;;5.43;4.87;;;16.60;89.80;;;;;;5009078;28;20446;-69
2023/05/12 02:07:25;;;;;;;5.97;5.17;;;16.60;89.80;;;;;;5001479;28;20433;-69
2023/05/12 02:09:54;;;;;;;5.47;4.90;;;16.60;89.80;;;;;;4995960;28;20450;-70
2023/05/12 02:12:26;;;;;;;5.33;4.30;;;16.60;89.80;;;;;;5006344;28;20478;-69
2023/05/12 02:14:54;;;;;;;5.37;4.87;;;16.60;89.80;;;;;;5008650;28;20532;-69
2023/05/12 02:17:23;;;;;;;5.60;5.10;;;16.60;89.80;;;;;;5007087;28;20549;-69
2023/05/12 02:19:52;;;;;;;5.93;5.33;;;16.60;89.80;;;;;;5008112;28;20441;-68
2023/05/12 02:22:20;;;;;;;5.07;4.53;;;16.60;89.80;;;;;;5008434;28;21028;-68
2023/05/12 02:24:49;;;;;;;6.00;5.40;;;16.60;89.80;;;;;;5019849;28;20953;-69
2023/05/12 02:27:17;;;;;;;4.40;4.00;;;16.60;89.80;;;;;;5005883;28;20766;-68
2023/05/12 02:29:47;;;;;;;6.03;5.43;;;16.60;89.80;;;;;;5009283;28;20546;-68
2023/05/12 02:32:17;;;;;;;5.37;4.70;;;16.60;89.80;;;;;;5004723;28;20473;-68
2023/05/12 02:34:48;;;;;;;6.40;5.03;;;16.60;89.80;;;;;;5016637;28;20438;-69
2023/05/12 02:37:16;;;;;;;5.37;4.80;;;16.60;89.80;;;;;;5022944;28;20437;-68
2023/05/12 02:39:45;;;;;;;5.70;4.87;;;16.60;89.80;;;;;;5007408;28;20447;-70
2023/05/12 02:42:13;;;;;;;4.20;3.80;;;16.50;89.60;;;;;;5011133;28;20430;-69
2023/05/12 02:44:42;;;;;;;5.23;4.73;;;16.60;89.80;;;;;;5006908;28;20445;-69
2023/05/12 02:47:11;;;;;;;4.17;3.77;;;16.60;89.80;;;;;;5001279;28;20449;-68
2023/05/12 02:49:40;;;;;;;5.03;4.53;;;16.60;89.80;;;;;;5004130;28;20508;-69
2023/05/12 02:52:08;;;;;;;4.57;3.97;;;16.60;89.80;;;;;;5011504;28;20449;-69
2023/05/12 02:54:37;;;;;;;4.57;4.20;;;16.60;89.80;;;;;;5003701;28;20881;-68
2023/05/12 02:57:06;;;;;;;3.90;3.60;;;16.50;89.70;;;;;;5007386;28;20445;-69
2023/05/12 02:59:34;;;;;;;4.03;3.63;;;16.60;89.80;;;;;;4994162;28;20866;-69
2023/05/12 03:02:03;;;;;;;4.67;4.27;;;16.50;89.70;;;;;;4998904;28;20738;-69
2023/05/12 03:04:34;;;;;;;4.63;4.13;;;16.50;89.60;;;;;;5005617;28;20473;-68
2023/05/12 03:07:03;;;;;;;3.80;3.50;;;16.50;89.60;;;;;;5010641;28;20457;-69
2023/05/12 03:09:43;;;;;;;3.97;3.57;;;16.50;89.60;;;;;;4995193;28;21033;-68
2023/05/12 03:12:12;;;;;;;3.60;3.20;;;16.60;89.80;;;;;;4997294;28;20462;-69
2023/05/12 03:14:41;;;;;;;3.60;3.30;;;16.50;89.60;;;;;;5004243;28;20568;-69
2023/05/12 03:17:09;;;;;;;4.40;4.00;;;16.50;89.60;;;;;;5003858;28;20457;-68
2023/05/12 03:19:39;;;;;;;3.67;3.37;;;16.50;89.60;;;;;;5016609;28;20534;-69
2023/05/12 03:22:08;;;;;;;3.80;3.13;;;16.50;89.70;;;;;;5002660;28;20439;-69
2023/05/12 03:24:36;;;;;;;3.30;3.00;;;16.50;89.60;;;;;;5013826;28;20462;-70
2023/05/12 03:27:05;;;;;;;3.23;2.93;;;16.50;89.60;;;;;;5004701;28;20883;-69
2023/05/12 03:29:34;;;;;;;3.40;3.10;;;16.50;89.60;;;;;;4996796;28;20456;-69
2023/05/12 03:32:02;;;;;;;3.10;2.90;;;16.50;89.60;;;;;;5004094;28;20564;-68
2023/05/12 03:34:31;;;;;;;3.30;2.87;;;16.50;89.70;;;;;;4998609;28;20496;-68
2023/05/12 03:37:01;;;;;;;3.60;3.27;;;16.50;89.70;;;;;;5009207;28;20531;-67
2023/05/12 03:39:30;;;;;;;3.40;3.10;;;16.50;89.70;;;;;;4998792;28;20446;-67
2023/05/12 03:41:58;;;;;;;3.03;2.73;;;16.50;89.60;;;;;;5004021;28;20457;-69
2023/05/12 03:44:26;;;;;;;3.20;2.90;;;16.50;89.60;;;;;;5003942;28;20982;-69
2023/05/12 03:46:56;;;;;;;3.53;3.23;;;16.50;89.60;;;;;;5003328;28;20469;-69
2023/05/12 03:49:28;;;;;;;3.63;3.20;;;16.50;89.60;;;;;;5003912;28;20499;-69
2023/05/12 03:51:57;;;;;;;2.63;2.43;;;16.50;89.60;;;;;;5025322;28;20523;-68
2023/05/12 03:54:26;;;;;;;3.33;3.00;;;16.50;89.80;;;;;;5001623;28;20611;-69
2023/05/12 03:56:55;;;;;;;3.10;2.90;;;16.50;89.70;;;;;;5003993;28;20468;-69
2023/05/12 03:59:24;;;;;;;2.83;2.63;;;16.50;89.70;;;;;;4992332;28;20446;-68
2023/05/12 04:01:53;;;;;;;3.13;2.73;;;16.50;89.60;;;;;;5026878;28;20480;-68
2023/05/12 04:04:21;;;;;;;3.47;3.13;;;16.50;89.60;;;;;;5001464;28;21001;-69
2023/05/12 04:06:50;;;;;;;2.87;2.67;;;16.50;89.60;;;;;;4995086;28;20994;-68
2023/05/12 04:09:20;;;;;;;3.50;3.20;;;16.50;89.60;;;;;;5007060;28;20448;-68
2023/05/12 04:11:50;;;;;;;3.40;3.10;;;16.50;89.60;;;;;;4994373;28;20690;-69
2023/05/12 04:14:19;;;;;;;2.63;2.20;;;16.40;89.50;;;;;;5004938;28;20568;-68
2023/05/12 04:16:59;;;;;;;3.67;2.37;;;16.50;89.60;;;;;;5005580;28;20481;-68
2023/05/12 04:19:27;;;;;;;3.10;2.80;;;16.50;89.60;;;;;;4998533;28;20632;-69
2023/05/12 04:21:56;;;;;;;2.93;2.70;;;16.50;89.60;;;;;;5001367;28;20507;-70
2023/05/12 04:24:25;;;;;;;3.00;2.67;;;16.50;89.60;;;;;;4995120;28;20477;-69
2023/05/12 04:26:57;;;;;;;2.83;2.63;;;16.50;89.60;;;;;;5014214;28;20531;-69
2023/05/12 04:29:26;;;;;;;2.83;2.63;;;16.40;89.50;;;;;;5007869;28;20460;-69
2023/05/12 04:31:55;;;;;;;2.50;2.30;;;16.50;89.60;;;;;;5024898;28;20519;-69
2023/05/12 04:34:23;;;;;;;2.67;2.47;;;16.50;89.70;;;;;;5007740;28;20517;-68
2023/05/12 04:36:52;;;;;;;3.00;2.70;;;16.40;89.50;;;;;;5004131;28;20484;-67
2023/05/12 04:39:21;;;;;;;3.07;2.77;;;16.40;89.50;;;;;;5009416;28;20453;-69
2023/05/12 04:41:49;;;;;;;2.70;2.50;;;16.40;89.50;;;;;;5005025;28;20576;-69
2023/05/12 04:44:20;;;;;;;2.87;2.67;;;16.40;89.50;;;;;;5009027;28;20505;-67
2023/05/12 04:46:52;;;;;;;2.73;2.53;;;16.40;89.50;;;;;;5013477;28;20508;-68
2023/05/12 04:49:21;;;;;;;3.00;2.70;;;16.50;89.60;;;;;;5008315;28;20486;-68
2023/05/12 04:51:50;;;;;;;3.33;2.80;;;16.40;89.60;;;;;;5006404;28;20478;-69
2023/05/12 04:54:18;;;;;;;2.70;2.50;;;16.40;89.50;;;;;;5007794;28;20461;-69
2023/05/12 04:56:47;;;;;;;2.70;2.50;;;16.40;89.70;;;;;;5007919;28;20465;-69
2023/05/12 04:59:15;;;;;;;2.63;2.23;;;16.40;89.50;;;;;;5008798;28;20913;-68
2023/05/12 05:01:47;;;;;;;2.43;2.23;;;16.40;89.60;;;;;;5001373;28;20477;-69
2023/05/12 05:04:15;;;;;;;2.30;2.10;;;16.40;89.50;;;;;;5009954;28;20453;-69
2023/05/12 05:06:44;;;;;;;3.10;2.80;;;16.40;89.60;;;;;;5014289;28;20463;-68
2023/05/12 05:09:14;;;;;;;2.33;2.03;;;16.40;89.60;;;;;;5005270;28;20445;-69
2023/05/12 05:11:43;;;;;;;2.73;2.53;;;16.40;89.50;;;;;;4996861;28;20473;-69
2023/05/12 05:14:12;;;;;;;2.97;2.77;;;16.40;89.70;;;;;;5018381;28;20513;-69
2023/05/12 05:16:41;;;;;;;2.53;2.33;;;16.40;89.60;;;;;;5002395;28;20476;-68
2023/05/12 05:19:12;;;;;;;2.40;2.20;;;16.40;89.60;;;;;;5006730;28;20457;-69
2023/05/12 05:21:53;;;;;;;2.17;2.00;;;16.40;89.70;;;;;;5005536;28;20505;-68
2023/05/12 05:24:22;;;;;;;2.40;2.20;;;16.40;89.70;;;;;;5010164;28;20531;-69
2023/05/12 05:26:50;;;;;;;2.30;2.10;;;16.40;89.60;;;;;;5004247;28;20473;-66
2023/05/12 05:29:20;;;;;;;2.67;2.43;;;16.40;89.60;;;;;;5016172;28;20888;-68
2023/05/12 05:31:49;;;;;;;2.33;2.13;;;16.40;89.80;;;;;;5000922;28;20489;-69
2023/05/12 05:34:19;;;;;;;2.33;1.97;;;16.40;89.60;;;;;;5003558;28;20597;-68
2023/05/12 05:36:48;;;;;;;2.20;2.00;;;16.40;89.90;;;;;;4987265;28;20454;-67
2023/05/12 05:39:16;;;;;;;2.30;2.10;;;16.40;90.00;;;;;;4978758;28;20458;-69
2023/05/12 05:41:45;;;;;;;2.40;2.20;;;16.40;90.00;;;;;;5016310;28;20474;-68
2023/05/12 05:44:14;;;;;;;2.40;2.13;;;16.40;89.90;;;;;;4994334;28;20457;-67
2023/05/12 05:46:43;;;;;;;2.43;2.23;;;16.40;90.00;;;;;;4998276;28;20531;-67
2023/05/12 05:49:12;;;;;;;2.73;1.80;;;16.40;90.00;;;;;;5000271;28;20515;-69
2023/05/12 05:51:42;;;;;;;2.60;2.40;;;16.40;90.00;;;;;;5006103;28;20559;-68
2023/05/12 05:54:10;;;;;;;2.50;2.30;;;16.40;90.00;;;;;;4999818;28;20465;-68
2023/05/12 05:56:39;;;;;;;1.90;1.70;;;16.40;90.00;;;;;;4990598;28;20479;-68
2023/05/12 05:59:08;;;;;;;2.20;2.00;;;16.30;90.10;;;;;;4983400;28;20429;-67
2023/05/12 06:01:37;;;;;;;2.43;2.20;;;16.40;90.10;;;;;;5000462;28;20920;-69
2023/05/12 06:04:06;;;;;;;2.70;2.37;;;16.40;90.10;;;;;;5013635;28;20489;-68
2023/05/12 06:06:36;;;;;;;2.23;2.03;;;16.30;90.10;;;;;;4990221;28;20473;-68
2023/05/12 06:09:08;;;;;;;2.23;1.90;;;16.30;90.10;;;;;;5005062;28;20441;-68
2023/05/12 06:11:36;;;;;;;2.20;2.00;;;16.30;90.10;;;;;;4997448;28;21083;-67
2023/05/12 06:14:06;;;;;;;2.20;2.00;;;16.30;90.10;;;;;;5007189;28;20477;-67
2023/05/12 06:16:35;;;;;;;2.80;2.60;;;16.30;90.10;;;;;;4998824;28;20481;-69
2023/05/12 06:19:03;;;;;;;2.30;2.10;;;16.30;90.10;;;;;;5006568;28;20448;-69
2023/05/12 06:21:32;;;;;;;1.90;1.70;;;16.30;90.10;;;;;;5002757;28;20489;-68
2023/05/12 06:24:00;;;;;;;2.03;1.90;;;16.30;90.00;;;;;;5004948;28;20461;-67
2023/05/12 06:26:30;;;;;;;2.73;2.40;;;16.30;90.10;;;;;;5004869;28;20487;-69
2023/05/12 06:28:58;;;;;;;2.40;2.20;;;16.30;90.10;;;;;;4997843;28;20561;-69
2023/05/12 06:31:27;;;;;;;2.60;2.40;;;16.30;90.00;;;;;;5004386;28;20871;-70
2023/05/12 06:33:55;;;;;;;2.50;2.30;;;16.30;90.00;;;;;;5006867;28;20473;-69
2023/05/12 06:36:24;;;;;;;2.37;2.17;;;16.30;90.00;;;;;;5006139;28;20461;-68
2023/05/12 06:38:52;;;;;;;2.33;2.13;;;16.30;90.00;;;;;;5006242;28;21172;-69
2023/05/12 06:41:23;;;;;;;2.53;2.33;;;16.30;90.00;;;;;;5015723;28;20467;-69
2023/05/12 06:43:53;;;;;;;2.40;2.20;;;16.30;90.00;;;;;;5005477;28;20464;-68
2023/05/12 06:46:28;;;;;;;2.30;2.10;;;16.30;90.10;;;;;;5002754;28;20514;-67
2023/05/12 06:48:56;;;;;;;2.67;2.33;;;16.30;90.00;;;;;;5001068;28;20450;-68
2023/05/12 06:51:25;;;;;;;2.30;2.10;;;16.30;90.10;;;;;;5004639;28;21059;-72
2023/05/12 06:53:54;;;;;;;2.13;1.93;;;16.30;90.00;;;;;;5001737;28;20480;-71
2023/05/12 06:56:23;;;;;;;3.33;2.37;;;16.30;90.10;;;;;;4997454;28;20470;-72
2023/05/12 06:58:59;;;;;;;2.60;2.37;;;16.30;90.00;;;;;;5011082;28;20445;-73
2023/05/12 07:01:28;;;;;;;2.13;1.87;;;16.30;90.10;;;;;;5015374;28;20491;-72
2023/05/12 07:03:57;;;;;;;2.67;2.47;;;16.30;90.10;;;;;;4998621;28;20466;-72
2023/05/12 07:06:26;;;;;;;2.30;2.00;;;16.30;90.10;;;;;;5019019;28;20462;-70
2023/05/12 07:08:55;;;;;;;2.03;1.83;;;16.30;90.00;;;;;;5004563;28;20872;-72
2023/05/12 07:11:24;;;;;;;3.23;2.20;;;16.30;90.00;;;;;;5003164;28;20473;-73
2023/05/12 07:13:54;;;;;;;2.57;2.37;;;16.30;90.10;;;;;;4999787;28;20477;-73
2023/05/12 07:16:22;;;;;;;3.00;2.70;;;16.30;90.10;;;;;;5003181;28;20558;-73
2023/05/12 07:18:51;;;;;;;2.30;2.10;;;16.30;90.10;;;;;;5005535;28;20440;-68
2023/05/12 07:21:20;;;;;;;2.50;2.27;;;16.30;90.00;;;;;;4999845;28;20497;-68
2023/05/12 07:23:49;;;;;;;2.80;2.17;;;16.30;90.00;;;;;;4996709;28;20559;-67
2023/05/12 07:26:17;;;;;;;2.70;2.30;;;16.30;90.10;;;;;;5005079;28;20467;-68
2023/05/12 07:28:46;;;;;;;1.70;1.60;;;16.30;90.10;;;;;;5005131;28;20456;-67
2023/05/12 07:31:16;;;;;;;2.47;2.10;;;16.20;90.00;;;;;;5004949;28;20473;-68
2023/05/12 07:33:44;;;;;;;2.27;2.07;;;16.30;90.00;;;;;;4989605;28;20476;-68
2023/05/12 07:36:13;;;;;;;2.23;2.03;;;16.30;90.10;;;;;;5022847;28;20466;-69
2023/05/12 07:38:41;;;;;;;2.83;2.63;;;16.30;90.10;;;;;;5007955;28;20532;-68
2023/05/12 07:41:10;;;;;;;2.30;2.10;;;16.30;90.10;;;;;;5000896;28;20458;-67
2023/05/12 07:43:38;;;;;;;2.70;2.10;;;16.20;90.10;;;;;;5008961;28;20446;-67
2023/05/12 07:46:07;;;;;;;3.23;2.17;;;16.30;90.20;;;;;;4996836;28;20493;-68
2023/05/12 07:48:38;;;;;;;2.00;1.80;;;16.30;90.20;;;;;;5008176;28;20543;-69
2023/05/12 07:51:08;;;;;;;1.90;1.80;;;16.30;90.20;;;;;;5000169;28;20557;-68
2023/05/12 07:53:37;;;;;;;1.83;1.73;;;16.30;90.80;;;;;;5005501;28;20469;-67
2023/05/12 07:56:07;;;;;;;2.20;2.00;;;16.20;90.20;;;;;;5007718;28;20512;-66
2023/05/12 07:58:35;;;;;;;1.73;1.43;;;16.20;90.20;;;;;;5009991;28;20512;-67
2023/05/12 08:01:05;;;;;;;2.40;2.20;;;16.20;90.30;;;;;;5000782;28;20480;-69
2023/05/12 08:03:35;;;;;;;2.20;2.00;;;16.20;90.30;;;;;;5004841;28;20473;-68
2023/05/12 08:06:06;;;;;;;1.60;1.50;;;16.20;90.30;;;;;;4989501;28;20450;-68
2023/05/12 08:08:35;;;;;;;2.50;2.30;;;16.30;90.30;;;;;;5004520;28;20539;-68
2023/05/12 08:11:03;;;;;;;2.40;2.20;;;16.20;90.30;;;;;;4991842;28;21009;-66
2023/05/12 08:13:32;;;;;;;2.37;1.90;;;16.20;90.40;;;;;;4983649;28;20500;-68
2023/05/12 08:16:00;;;;;;;2.60;2.10;;;16.20;90.40;;;;;;5003576;28;20472;-66
2023/05/12 08:18:29;;;;;;;1.80;1.67;;;16.20;90.50;;;;;;5005696;28;20556;-67
2023/05/12 08:20:57;;;;;;;1.77;1.60;;;16.20;90.60;;;;;;5005979;28;20473;-67
2023/05/12 08:23:28;;;;;;;2.33;1.80;;;16.20;90.60;;;;;;5003802;28;20553;-66
2023/05/12 08:25:56;;;;;;;2.40;2.20;;;16.20;90.60;;;;;;4998423;28;21076;-68
2023/05/12 08:28:25;;;;;;;1.67;1.57;;;16.20;90.60;;;;;;4996675;28;20511;-66
2023/05/12 08:30:53;;;;;;;2.90;2.33;;;16.20;90.60;;;;;;5000826;28;20474;-68
2023/05/12 08:33:22;;;;;;;1.70;1.60;;;16.20;90.60;;;;;;5004826;28;20465;-67
2023/05/12 08:35:51;;;;;;;1.93;1.73;;;16.20;90.60;;;;;;4998014;28;20488;-73
2023/05/12 08:38:20;;;;;;;2.00;1.50;;;16.20;90.50;;;;;;5017698;28;20490;-73
2023/05/12 08:41:12;;;;;;;2.50;1.60;;;16.20;90.60;;;;;;5008880;28;20556;-71
2023/05/12 08:43:44;;;;;;;1.70;1.53;;;16.20;90.60;;;;;;4998777;28;20536;-70
2023/05/12 08:46:13;;;;;;;1.60;1.50;;;16.20;90.60;;;;;;5007541;28;20518;-72
2023/05/12 08:48:42;;;;;;;1.47;1.33;;;16.20;90.50;;;;;;4995564;28;20435;-73
2023/05/12 08:51:10;;;;;;;1.57;1.47;;;16.20;90.50;;;;;;4999522;28;20467;-72
2023/05/12 08:53:40;;;;;;;1.53;1.43;;;16.20;90.60;;;;;;4999939;28;20523;-73
2023/05/12 08:56:12;;;;;;;1.80;1.70;;;16.20;90.60;;;;;;4992935;28;20598;-71
2023/05/12 08:58:46;;;;;;;1.93;1.50;;;16.20;90.60;;;;;;5001118;28;20447;-71
2023/05/12 09:01:16;;;;;;;1.70;1.60;;;16.20;90.60;;;;;;4999169;28;21032;-71
2023/05/12 09:03:44;;;;;;;3.20;1.60;;;16.20;90.60;;;;;;5007531;28;20473;-72
2023/05/12 09:06:14;;;;;;;2.40;2.03;;;16.20;90.70;;;;;;5010998;28;20465;-67
2023/05/12 09:08:45;;;;;;;1.60;1.50;;;16.20;90.60;;;;;;5007798;28;20450;-73
2023/05/12 09:11:16;;;;;;;1.73;1.63;;;16.20;90.80;;;;;;5015603;28;20602;-73
2023/05/12 09:13:52;;;;;;;1.43;1.33;;;16.20;90.80;;;;;;4991882;28;20470;-72
2023/05/12 09:16:24;;;;;;;2.00;1.80;;;16.20;90.70;;;;;;4998747;28;21001;-73
2023/05/12 09:18:54;;;;;;;2.10;1.90;;;16.30;90.70;;;;;;5009021;28;20536;-72
2023/05/12 09:21:23;;;;;;;1.90;1.80;;;16.30;90.70;;;;;;5008382;28;20512;-71
2023/05/12 09:23:56;;;;;;;1.53;1.40;;;16.20;90.60;;;;;;5006219;28;21064;-73
2023/05/12 09:26:27;;;;;;;1.87;1.77;;;16.30;90.60;;;;;;5007009;28;20466;-72
2023/05/12 09:29:06;;;;;;;2.23;2.07;;;16.30;90.50;;;;;;5007120;28;20504;-73
2023/05/12 09:31:36;;;;;;;1.90;1.70;;;16.30;90.50;;;;;;5013855;28;20475;-71
2023/05/12 09:34:07;;;;;;;1.43;1.33;;;16.30;90.50;;;;;;5008685;28;20560;-72
2023/05/12 09:36:36;;;;;;;2.13;1.87;;;16.30;90.40;;;;;;4998571;28;20469;-71
2023/05/12 09:39:07;;;;;;;2.00;1.80;;;16.30;90.40;;;;;;5007261;28;21057;-68
2023/05/12 09:41:37;;;;;;;2.00;1.80;;;16.30;90.40;;;;;;5006059;28;20472;-67
2023/05/12 09:44:07;;;;;;;2.20;1.93;;;16.30;90.40;;;;;;5006473;28;20890;-68
2023/05/12 09:46:37;;;;;;;2.00;1.80;;;16.30;90.30;;;;;;5004787;28;20884;-67
2023/05/12 09:49:05;;;;;;;1.70;1.50;;;16.30;90.30;;;;;;5005244;28;20797;-68
2023/05/12 09:51:34;;;;;;;1.93;1.60;;;16.30;90.50;;;;;;5022331;28;20472;-68
2023/05/12 09:54:03;;;;;;;2.00;1.80;;;16.30;90.40;;;;;;5001874;28;21023;-67
2023/05/12 09:56:38;;;;;;;3.53;1.70;;;16.30;90.70;;;;;;4997402;28;20897;-67
2023/05/12 09:59:10;;;;;;;1.80;1.70;;;16.30;90.40;;;;;;5002744;28;20472;-67
2023/05/12 10:01:39;;;;;;;1.90;1.70;;;16.30;90.40;;;;;;5000916;28;20476;-68
2023/05/12 10:04:08;;;;;;;2.10;2.00;;;16.40;90.40;;;;;;5007698;28;20514;-69
2023/05/12 10:06:41;;;;;;;2.00;1.80;;;16.30;90.40;;;;;;4998048;28;20481;-67
2023/05/12 10:09:16;;;;;;;2.10;2.00;;;16.30;90.30;;;;;;4997437;28;20465;-66
2023/05/12 10:11:47;;;;;;;2.30;1.70;;;16.30;90.20;;;;;;4999537;28;20484;-67
2023/05/12 10:14:19;;;;;;;2.70;1.97;;;16.40;90.30;;;;;;4996812;28;20456;-68
2023/05/12 10:16:49;;;;;;;2.40;1.83;;;16.40;90.20;;;;;;5002719;28;20466;-68
2023/05/12 10:19:20;;;;;;;1.40;1.30;;;16.40;90.20;;;;;;5016871;28;20464;-68
2023/05/12 10:21:49;;;;;;;3.63;1.80;;;16.40;90.20;;;;;;5002648;28;20453;-66
2023/05/12 10:24:18;;;;;;;1.97;1.80;;;16.40;90.20;;;;;;5001212;28;20472;-67
2023/05/12 10:26:48;;;;;;;1.70;1.60;;;16.40;90.10;;;;;;4999264;28;20478;-69
2023/05/12 10:29:17;;;;;;;1.53;1.40;;;16.40;90.10;;;;;;5007585;28;20544;-67
2023/05/12 10:31:46;;;;;;;1.90;1.70;;;16.40;90.00;;;;;;5005599;28;20941;-67
2023/05/12 10:34:18;;;;;;;2.50;2.30;;;16.40;89.90;;;;;;4997525;28;20496;-67
2023/05/12 10:36:49;;;;;;;2.30;2.10;;;16.40;90.10;;;;;;5000551;28;20562;-65
2023/05/12 10:39:18;;;;;;;1.83;1.73;;;16.40;90.00;;;;;;5016142;28;20495;-68
2023/05/12 10:41:48;;;;;;;2.20;1.70;;;16.40;90.10;;;;;;5000315;28;21005;-69
2023/05/12 10:44:27;;;;;;;2.17;1.97;;;16.40;90.00;;;;;;5004394;28;20465;-69
2023/05/12 10:46:59;;;;;;;2.40;2.20;;;16.40;90.00;;;;;;4999431;28;20483;-66
2023/05/12 10:49:38;;;;;;;2.57;2.10;;;16.40;90.00;;;;;;5014277;28;21366;-68
2023/05/12 10:52:08;;;;;;;2.23;2.00;;;16.40;89.80;;;;;;5018638;28;20472;-68
2023/05/12 10:54:43;;;;;;;2.10;1.60;;;16.40;90.10;;;;;;5004023;28;20469;-68
2023/05/12 10:57:19;;;;;;;2.13;1.93;;;16.40;90.00;;;;;;5006696;28;20524;-66
2023/05/12 10:59:49;;;;;;;2.33;2.13;;;16.40;89.90;;;;;;5006272;28;20448;-68
2023/05/12 11:02:24;;;;;;;2.20;2.00;;;16.40;89.60;;;;;;4982059;28;20976;-67
2023/05/12 11:04:57;;;;;;;2.53;2.30;;;16.40;89.60;;;;;;4974482;28;20442;-67
2023/05/12 11:07:28;;;;;;;1.73;1.63;;;16.40;89.70;;;;;;4984216;28;20923;-67
2023/05/12 11:10:01;;;;;;;2.27;2.07;;;16.40;89.60;;;;;;4980092;28;20446;-68
2023/05/12 11:12:36;;;;;;;2.23;2.03;;;16.40;90.00;;;;;;4983786;28;20461;-67
2023/05/12 11:15:06;;;;;;;1.93;1.77;;;16.40;89.70;;;;;;4980009;28;20451;-67
2023/05/12 11:17:38;;;;;;;2.37;1.67;;;16.40;89.50;;;;;;4983994;28;20466;-66
2023/05/12 11:20:09;;;;;;;3.33;2.10;;;16.40;89.50;;;;;;4985801;28;20465;-67
2023/05/12 11:22:41;;;;;;;2.20;2.00;;;16.40;89.50;;;;;;4981604;28;20538;-68
2023/05/12 11:25:11;;;;;;;1.80;1.70;;;16.40;89.50;;;;;;4980789;28;20445;-67
2023/05/12 11:27:50;;;;;;;3.30;2.57;;;16.40;89.50;;;;;;4981319;28;21915;-67
2023/05/12 11:30:18;;;;;;;2.30;2.10;;;16.40;89.50;;;;;;4981293;28;20477;-68
2023/05/12 11:32:47;;;;;;;2.07;1.87;;;16.40;89.60;;;;;;5000640;28;20867;-67
2023/05/12 11:35:18;;;;;;;2.80;2.60;;;16.40;89.20;;;;;;5003297;28;20813;-67
2023/05/12 11:37:47;;;;;;;3.70;2.83;;;16.50;87.70;;;;;;4999411;28;20465;-68
2023/05/12 11:40:20;;;;;;;3.27;2.97;;;16.50;87.10;;;;;;5007570;28;20434;-72
2023/05/12 11:42:52;;;;;;;4.20;2.97;;;16.50;86.90;;;;;;5014549;28;20996;-72
2023/05/12 11:45:22;;;;;;;3.90;3.60;;;16.50;87.00;;;;;;4996487;28;20864;-72
2023/05/12 11:47:51;;;;;;;3.00;2.80;;;16.50;87.00;;;;;;5003123;28;20996;-73
2023/05/12 11:50:22;;;;;;;3.17;2.97;;;16.50;87.10;;;;;;5005894;28;20851;-71
2023/05/12 11:52:52;;;;;;;7.40;3.20;;;16.50;87.40;;;;;;5005657;28;20552;-71
2023/05/12 11:55:22;;;;;;;3.20;2.90;;;16.50;87.70;;;;;;5004687;28;20916;-72
2023/05/12 11:58:00;;;;;;;3.17;2.47;;;16.50;87.20;;;;;;5005906;28;20473;-72
2023/05/12 12:00:31;;;;;;;2.90;2.50;;;16.50;87.20;;;;;;4997382;28;20438;-72
2023/05/12 12:03:10;;;;;;;2.77;2.57;;;16.50;87.40;;;;;;5007201;28;20469;-72
2023/05/12 12:05:40;;;;;;;2.53;2.33;;;16.50;87.90;;;;;;5005423;28;20727;-72
2023/05/12 12:08:12;;;;;;;3.53;2.93;;;16.50;87.80;;;;;;5003672;28;20453;-72
2023/05/12 12:10:44;;;;;;;2.90;2.70;;;16.40;87.80;;;;;;5004753;28;20523;-72
2023/05/12 12:13:20;;;;;;;3.50;2.87;;;16.50;88.00;;;;;;5017632;28;20891;-72
2023/05/12 12:15:49;;;;;;;3.13;2.93;;;16.40;87.60;;;;;;4985088;28;20524;-73
2023/05/12 12:18:17;;;;;;;3.10;2.80;;;16.50;87.90;;;;;;5005921;28;21009;-72
2023/05/12 12:20:47;;;;;;;2.70;2.50;;;16.50;88.10;;;;;;4996023;28;20856;-73
2023/05/12 12:23:15;;;;;;;2.53;2.33;;;16.50;88.00;;;;;;5008013;28;20816;-71
2023/05/12 12:25:44;;;;;;;3.63;2.43;;;16.50;88.40;;;;;;5017410;28;20445;-72
2023/05/12 12:28:14;;;;;;;3.53;3.20;;;16.50;88.40;;;;;;5008831;28;20492;-71
2023/05/12 12:30:43;;;;;;;2.50;2.30;;;16.50;88.50;;;;;;5008453;28;20461;-73
2023/05/12 12:33:11;;;;;;;2.60;2.40;;;16.40;88.60;;;;;;5007374;28;21159;-72
2023/05/12 12:35:40;;;;;;;3.53;3.13;;;16.50;88.70;;;;;;5008976;28;20429;-72
2023/05/12 12:38:09;;;;;;;3.30;3.00;;;16.50;88.80;;;;;;5000320;28;20494;-72
2023/05/12 12:40:37;;;;;;;3.03;2.80;;;16.50;88.80;;;;;;5007919;28;20445;-72
2023/05/12 12:43:05;;;;;;;3.40;2.83;;;16.50;88.90;;;;;;5009280;28;20469;-72
2023/05/12 12:45:35;;;;;;;2.73;2.40;;;16.50;89.00;;;;;;5014653;28;20465;-73
2023/05/12 12:48:05;;;;;;;2.63;2.40;;;16.50;89.00;;;;;;5010122;28;20442;-73
2023/05/12 12:50:35;;;;;;;2.60;2.40;;;16.40;88.90;;;;;;5008409;28;20952;-72
2023/05/12 12:53:04;;;;;;;2.50;2.30;;;16.50;89.00;;;;;;5017150;28;20477;-68
2023/05/12 12:55:32;;;;;;;4.13;2.77;;;16.50;90.10;;;;;;5004165;28;20481;-68
2023/05/12 12:58:00;;;;;;;3.60;3.30;;;16.50;89.70;;;;;;5005099;28;20564;-67
2023/05/12 13:00:29;;;;;;;3.13;2.83;;;16.70;89.90;;;;;;5015259;28;20441;-69